Time;durP1;ratioP1;P1;durP2;ratioP2;P2;SDS_P1;SDS_P2;PMS_P1;PMS_P2;Temp;Humidity;BMP_temperature;BMP_pressure;BME280_temperature;BME280_humidity;BME280_pressure;Samples;Min_cycle;Max_cycle;Signal;HPM_P1;HPM_P2
2022/09/26 00:03:49;;;;;;;6.22;2.35;;;;;;;12.86;84.82;101001.47;10420780;28;20041;-66
2022/09/26 00:08:51;;;;;;;12.33;4.70;;;;;;;13.10;83.24;101025.50;10419354;28;20526;-66
2022/09/26 00:13:55;;;;;;;8.20;3.08;;;;;;;12.65;83.32;100943.34;10420395;28;20041;-66
2022/09/26 00:18:57;;;;;;;5.60;3.20;;;;;;;13.19;84.03;101026.31;10420741;28;20058;-66
2022/09/26 00:24:00;;;;;;;9.10;3.90;;;;;;;13.06;84.41;101016.16;10419814;28;20041;-66
2022/09/26 00:29:06;;;;;;;8.57;3.80;;;;;;;13.09;85.94;101029.16;10420010;28;20046;-66
2022/09/26 00:34:09;;;;;;;9.73;3.00;;;;;;;13.06;86.28;101028.66;10420158;28;20037;-66
2022/09/26 00:39:12;;;;;;;6.57;2.65;;;;;;;12.91;87.14;101023.16;10419534;28;20557;-66
2022/09/26 00:44:31;;;;;;;13.82;2.60;;;;;;;12.96;89.55;101044.84;10419281;28;20073;-66
2022/09/26 00:49:40;;;;;;;17.98;3.78;;;;;;;12.90;89.21;101049.00;10417303;28;20136;-66
2022/09/26 00:54:46;;;;;;;4.00;2.50;;;;;;;12.90;87.80;101040.16;10417262;28;20045;-67
2022/09/26 00:59:51;;;;;;;6.05;2.92;;;;;;;12.42;88.00;100969.81;10419087;28;20056;-66
2022/09/26 01:04:53;;;;;;;8.93;3.50;;;;;;;12.72;87.80;101016.31;10417140;28;20034;-66
2022/09/26 01:09:55;;;;;;;4.45;3.15;;;;;;;12.34;89.20;100959.97;10418261;28;20060;-66
2022/09/26 01:14:57;;;;;;;5.53;3.05;;;;;;;12.76;89.64;101038.97;10418120;28;20044;-65
2022/09/26 01:20:29;;;;;;;8.35;3.28;;;;;;;12.37;89.97;100972.13;10418427;28;20127;-66
2022/09/26 01:26:07;;;;;;;6.20;2.95;;;;;;;12.72;92.33;101043.00;10394923;28;20053;-66
2022/09/26 01:31:14;;;;;;;6.63;3.15;;;;;;;12.08;90.16;100952.09;10417232;28;20455;-67
2022/09/26 01:37:07;;;;;;;4.85;2.83;;;;;;;12.69;93.51;101045.97;10417353;28;20037;-66
2022/09/26 01:42:32;;;;;;;6.75;2.90;;;;;;;12.73;94.79;101042.81;10401371;28;20061;-66
2022/09/26 01:48:02;;;;;;;5.93;2.95;;;;;;;12.29;94.95;100972.94;10416731;28;20498;-66
2022/09/26 01:53:24;;;;;;;5.95;2.47;;;;;;;12.61;95.14;101021.97;10414869;28;20132;-66
2022/09/26 01:59:04;;;;;;;4.18;2.63;;;;;;;12.63;95.88;101030.66;10415935;28;20048;-66
2022/09/26 02:04:11;;;;;;;7.43;2.60;;;;;;;12.40;93.53;101007.28;10416518;28;20049;-65
2022/09/26 02:09:20;;;;;;;5.97;2.28;;;;;;;12.51;95.40;101038.13;10415969;28;20069;-66
2022/09/26 02:14:28;;;;;;;4.60;2.42;;;;;;;12.40;95.15;101025.09;10414609;28;20444;-66
2022/09/26 02:19:38;;;;;;;5.22;2.42;;;;;;;11.85;96.00;100939.41;10413735;28;20096;-66
2022/09/26 02:24:39;;;;;;;18.38;3.85;;;;;;;12.50;94.64;101044.44;10414822;28;20079;-66
2022/09/26 02:29:39;;;;;;;31.17;4.07;;;;;;;12.44;95.04;101029.09;10415132;28;20046;-65
2022/09/26 02:34:42;;;;;;;37.33;4.70;;;;;;;12.34;95.74;101032.75;10413338;28;20116;-67
2022/09/26 02:39:45;;;;;;;50.63;5.30;;;;;;;12.26;95.89;101039.88;10412091;28;20065;-66
2022/09/26 02:45:10;;;;;;;25.40;4.10;;;;;;;11.16;100.00;100853.47;10412027;28;20045;-66
2022/09/26 02:50:18;;;;;;;33.40;4.35;;;;;;;11.93;99.13;100991.00;10406656;28;20055;-66
2022/09/26 02:55:42;;;;;;;19.00;3.10;;;;;;;12.19;99.44;101034.38;10407631;28;20142;-68
2022/09/26 03:01:26;;;;;;;27.13;4.47;;;;;;;12.16;100.00;101050.66;10408773;28;20045;-66
2022/09/26 03:06:32;;;;;;;40.58;5.13;;;;;;;11.95;98.85;101028.97;10394275;28;20057;-66
2022/09/26 03:11:34;;;;;;;23.70;4.28;;;;;;;11.94;98.50;101025.47;10413018;28;20050;-66
2022/09/26 03:16:39;;;;;;;43.20;5.82;;;;;;;11.87;98.64;101014.59;10413880;28;20512;-65
2022/09/26 03:21:40;;;;;;;34.15;4.53;;;;;;;11.53;97.98;100956.03;10412955;28;20041;-66
2022/09/26 03:26:41;;;;;;;25.23;4.47;;;;;;;11.88;98.56;100984.34;10411978;28;20041;-66
2022/09/26 03:31:43;;;;;;;21.55;4.10;;;;;;;11.81;97.40;100913.22;10412085;28;20041;-66
2022/09/26 03:36:44;;;;;;;19.60;3.78;;;;;;;12.79;96.13;101025.31;10412538;28;20080;-67
2022/09/26 03:41:45;;;;;;;48.97;5.53;;;;;;;13.18;95.64;101029.97;10413845;28;20143;-66
2022/09/26 03:46:46;;;;;;;14.82;4.03;;;;;;;13.43;93.74;100982.75;10412931;28;20037;-66
2022/09/26 03:51:47;;;;;;;29.70;4.65;;;;;;;14.14;90.77;101008.53;10413261;28;20128;-66
2022/09/26 03:56:47;;;;;;;28.23;3.53;;;;;;;14.63;88.94;101019.94;10412949;28;20231;-67
2022/09/26 04:01:50;;;;;;;88.75;6.32;;;;;;;15.23;87.67;101025.31;10407569;28;20056;-66
2022/09/26 04:06:51;;;;;;;17.27;3.03;;;;;;;15.03;84.73;100872.47;10386778;28;20064;-66
2022/09/26 04:11:52;;;;;;;12.43;2.78;;;;;;;16.56;82.54;101002.94;10406132;28;20390;-67
2022/09/26 04:16:53;;;;;;;15.38;2.88;;;;;;;17.42;80.24;101015.44;10406134;28;20054;-67
2022/09/26 04:21:54;;;;;;;8.88;2.55;;;;;;;17.91;77.10;101006.44;10406037;28;20497;-67
2022/09/26 04:26:55;;;;;;;11.38;3.08;;;;;;;18.03;73.41;101002.16;10404994;28;20052;-69
2022/09/26 04:31:56;;;;;;;6.63;3.53;;;;;;;17.83;71.50;101020.03;10405627;28;20493;-68
2022/09/26 04:36:58;;;;;;;13.23;5.25;;;;;;;17.60;70.94;101029.19;10407655;28;20049;-67
2022/09/26 04:41:59;;;;;;;18.00;6.70;;;;;;;17.45;69.77;101023.94;10416487;28;20509;-68
2022/09/26 04:47:00;;;;;;;12.00;4.90;;;;;;;17.07;69.44;100953.66;10416137;28;20509;-67
2022/09/26 04:52:01;;;;;;;10.40;3.90;;;;;;;17.41;69.13;101008.41;10418992;28;20070;-66
2022/09/26 04:57:03;;;;;;;9.15;3.08;;;;;;;17.12;68.88;100956.59;10418927;28;20493;-67
2022/09/26 05:02:07;;;;;;;7.90;2.83;;;;;;;17.65;68.58;101033.97;10418527;28;20037;-67
2022/09/26 05:07:07;;;;;;;6.10;2.35;;;;;;;17.57;68.06;101002.72;10419013;28;20091;-66
2022/09/26 05:12:08;;;;;;;6.18;2.25;;;;;;;17.51;68.54;100972.13;10418348;28;20042;-66
2022/09/26 05:17:10;;;;;;;5.68;2.40;;;;;;;17.64;68.06;100995.53;10417433;28;20045;-67
2022/09/26 05:22:11;;;;;;;7.90;2.92;;;;;;;17.84;67.42;101022.53;10417981;28;20065;-67
2022/09/26 05:27:13;;;;;;;6.28;2.47;;;;;;;17.86;67.15;101009.75;10417320;28;20041;-67
2022/09/26 05:32:15;;;;;;;4.47;2.60;;;;;;;18.03;66.06;101020.97;10417541;28;20046;-67
2022/09/26 05:37:16;;;;;;;8.43;2.85;;;;;;;18.13;65.90;101016.06;10416802;28;20049;-67
2022/09/26 05:42:17;;;;;;;6.47;2.55;;;;;;;18.37;65.36;101017.38;10416659;28;20119;-67
2022/09/26 05:47:18;;;;;;;3.05;2.00;;;;;;;18.46;64.02;101013.47;10415855;28;20037;-68
2022/09/26 05:52:18;;;;;;;4.25;1.92;;;;;;;18.61;63.06;101015.97;10416830;28;20029;-66
2022/09/26 05:57:19;;;;;;;5.55;2.33;;;;;;;18.75;61.22;101018.72;10416540;28;20049;-67
2022/09/26 06:02:20;;;;;;;6.90;2.05;;;;;;;18.97;59.80;101013.97;10416361;28;20040;-66
2022/09/26 06:07:21;;;;;;;12.80;2.40;;;;;;;19.18;59.37;101013.75;10416080;28;20140;-67
2022/09/26 06:12:23;;;;;;;4.97;1.60;;;;;;;18.90;58.30;100920.56;10416771;28;20052;-67
2022/09/26 06:17:25;;;;;;;5.47;2.10;;;;;;;19.56;57.66;100999.59;10415251;28;20057;-66
2022/09/26 06:22:26;;;;;;;9.02;2.17;;;;;;;19.80;57.50;100998.09;10416096;28;20049;-67
2022/09/26 06:27:26;;;;;;;17.88;6.95;;;;;;;19.76;55.83;101000.41;10415124;28;20053;-67
2022/09/26 06:32:28;;;;;;;11.75;4.50;;;;;;;19.87;54.70;100996.22;10415640;28;20517;-67
2022/09/26 06:37:28;;;;;;;27.38;12.05;;;;;;;19.96;53.64;101003.03;10414979;28;20044;-68
2022/09/26 06:42:36;;;;;;;9.45;2.85;;;;;;;20.13;50.94;101007.94;10412052;28;20048;-67
2022/09/26 06:47:37;;;;;;;6.88;2.00;;;;;;;20.19;51.70;100989.03;10413892;28;20049;-67
2022/09/26 06:52:38;;;;;;;13.73;2.30;;;;;;;20.37;51.53;100984.75;10414893;28;20045;-66
2022/09/26 06:57:42;;;;;;;2.80;1.50;;;;;;;20.49;49.37;100988.41;10413378;28;20033;-66
2022/09/26 07:02:53;;;;;;;5.03;1.70;;;;;;;20.71;47.22;100970.03;10413393;28;20453;-67
2022/09/26 07:07:54;;;;;;;2.75;1.50;;;;;;;20.72;49.17;100956.31;10414194;28;20045;-67
2022/09/26 07:13:04;;;;;;;7.60;3.10;;;;;;;21.04;48.61;100958.94;10413762;28;20452;-67
2022/09/26 07:18:05;;;;;;;4.18;1.27;;;;;;;21.15;48.16;100938.50;10413699;28;20050;-67
2022/09/26 07:23:09;;;;;;;5.33;1.70;;;;;;;21.51;47.94;100945.81;10412847;28;20077;-68
2022/09/26 07:28:10;;;;;;;8.57;1.50;;;;;;;21.78;46.46;100949.03;10414187;28;20072;-67
2022/09/26 07:33:11;;;;;;;2.33;1.27;;;;;;;21.33;45.05;100878.19;10413293;28;20064;-67
2022/09/26 07:38:12;;;;;;;2.80;1.15;;;;;;;21.25;43.95;100873.94;10413731;28;20057;-67
2022/09/26 07:43:12;;;;;;;2.80;1.15;;;;;;;21.51;43.58;100935.00;10413726;28;20118;-67
2022/09/26 07:53:32;;;;;;;5.07;1.23;;;;;;;21.48;44.19;100861.63;10413107;28;20038;-68
2022/09/26 07:58:37;;;;;;;9.40;1.20;;;;;;;21.27;43.59;100800.75;10412974;28;20045;-67
2022/09/26 08:03:39;;;;;;;2.50;1.10;;;;;;;22.21;43.69;100906.63;10412642;28;20041;-67
2022/09/26 08:08:42;;;;;;;7.28;1.30;;;;;;;22.39;44.01;100901.16;10412655;28;20060;-67
2022/09/26 08:13:44;;;;;;;7.95;0.95;;;;;;;22.58;43.78;100910.00;10419489;28;20052;-68
2022/09/26 08:18:45;;;;;;;1.95;0.98;;;;;;;22.56;43.60;100894.00;10420723;28;20060;-66
2022/09/26 08:23:46;;;;;;;9.23;1.40;;;;;;;22.77;44.02;100891.78;10419506;28;20049;-66
2022/09/26 08:28:47;;;;;;;2.67;1.00;;;;;;;23.03;44.00;100901.31;10420014;28;20131;-67
2022/09/26 08:33:48;;;;;;;3.97;0.88;;;;;;;22.93;42.60;100891.06;10419660;28;20584;-66
2022/09/26 08:38:49;;;;;;;2.80;1.00;;;;;;;23.17;42.77;100880.22;10420194;28;20135;-68
2022/09/26 08:43:56;;;;;;;1.50;1.00;;;;;;;23.28;42.24;100897.53;10419245;28;20405;-67
2022/09/26 08:49:13;;;;;;;2.47;0.95;;;;;;;23.38;42.23;100884.19;10418588;28;20091;-66
2022/09/26 08:54:19;;;;;;;2.42;0.80;;;;;;;23.30;41.42;100889.97;10419434;28;20033;-68
2022/09/26 09:52:30;;;;;;;4.95;1.08;;;;;;;23.86;36.72;100815.16;10531475;27;20385;-69
2022/09/26 09:58:11;;;;;;;4.13;0.88;;;;;;;24.07;37.93;100819.84;10531853;28;20130;-72
2022/09/26 10:03:32;;;;;;;5.40;1.08;;;;;;;23.98;37.24;100807.75;10523114;28;20043;-66
2022/09/26 10:08:41;;;;;;;3.05;1.10;;;;;;;24.02;38.96;100808.94;10531567;28;20036;-70
2022/09/26 10:13:44;;;;;;;7.65;0.80;;;;;;;23.95;38.91;100794.69;10531577;28;20048;-69
2022/09/26 10:19:02;;;;;;;8.70;1.10;;;;;;;24.13;38.15;100791.72;10530994;28;20040;-70
2022/09/26 10:24:04;;;;;;;2.63;0.70;;;;;;;24.21;38.72;100789.69;10530889;28;20048;-70
2022/09/26 10:29:27;;;;;;;1.65;0.90;;;;;;;24.22;37.31;100785.91;10530034;28;20407;-68
2022/09/26 10:34:33;;;;;;;27.25;2.47;;;;;;;24.18;37.77;100782.03;10530415;28;20040;-69
2022/09/26 10:45:11;;;;;;;1.60;0.80;;;;;;;24.08;38.57;100729.25;10529942;28;20071;-69
2022/09/26 10:50:22;;;;;;;4.05;1.20;;;;;;;24.13;37.72;100764.59;10518467;28;20059;-69
2022/09/26 10:55:31;;;;;;;3.65;0.95;;;;;;;24.15;38.83;100758.94;10501696;28;20508;-69
2022/09/26 11:00:39;;;;;;;2.35;1.02;;;;;;;23.98;38.70;100742.63;10501522;28;20079;-69
2022/09/26 11:05:55;;;;;;;2.33;0.90;;;;;;;23.89;38.84;100725.94;10501332;28;20041;-69
2022/09/26 11:10:59;;;;;;;1.45;0.70;;;;;;;23.78;38.63;100707.03;10501260;28;20041;-69
2022/09/26 11:16:08;;;;;;;8.10;1.02;;;;;;;23.57;37.29;100679.56;10501043;28;20036;-69
2022/09/26 11:21:24;;;;;;;5.20;1.00;;;;;;;23.75;38.50;100696.69;10501768;28;20128;-69
2022/09/26 11:27:04;;;;;;;1.73;1.00;;;;;;;23.97;37.59;100738.28;10500236;28;20527;-68
2022/09/26 11:32:08;;;;;;;2.40;1.17;;;;;;;23.45;38.63;100665.25;10500445;28;20040;-70
2022/09/26 11:37:30;;;;;;;4.18;1.15;;;;;;;23.93;38.74;100742.56;10499624;28;20033;-70
2022/09/26 11:42:54;;;;;;;8.70;1.10;;;;;;;23.74;37.91;100700.47;10499355;28;20037;-68
2022/09/26 11:48:30;;;;;;;3.97;1.23;;;;;;;23.61;38.66;100679.91;10499069;28;20118;-69
2022/09/26 11:53:53;;;;;;;9.15;1.30;;;;;;;23.71;38.90;100718.06;10478024;28;20075;-69
2022/09/26 11:59:20;;;;;;;2.58;1.10;;;;;;;23.67;39.11;100712.28;10498902;28;20580;-69
2022/09/26 12:04:31;;;;;;;11.40;1.40;;;;;;;23.24;38.46;100651.38;10498196;28;20051;-70
2022/09/26 12:10:02;;;;;;;8.82;1.10;;;;;;;23.59;39.50;100707.25;10499198;28;20135;-69
2022/09/26 12:15:26;;;;;;;2.47;0.90;;;;;;;23.41;39.48;100705.59;10483997;28;20071;-68
2022/09/26 12:20:38;;;;;;;3.80;1.08;;;;;;;23.41;38.50;100685.78;10398365;28;20488;-69
2022/09/26 12:25:55;;;;;;;3.78;1.23;;;;;;;22.91;38.89;100626.84;10374594;28;20038;-72
2022/09/26 12:31:11;;;;;;;9.45;1.40;;;;;;;23.06;38.65;100672.41;10374037;28;20076;-71
2022/09/26 12:36:38;;;;;;;10.45;1.50;;;;;;;23.11;39.28;100680.66;10358807;28;20042;-71
2022/09/26 12:41:56;;;;;;;5.95;1.33;;;;;;;23.00;39.46;100702.16;10333540;28;20046;-73
2022/09/26 12:47:00;;;;;;;9.80;1.27;;;;;;;22.92;40.10;100704.38;10332710;28;20046;-73
2022/09/26 12:52:17;;;;;;;4.25;1.17;;;;;;;22.85;39.91;100703.69;10333351;28;20529;-72
2022/09/26 12:58:15;;;;;;;4.80;1.20;;;;;;;22.89;39.52;100689.44;10350572;28;20038;-71
2022/09/26 13:03:44;;;;;;;2.80;1.00;;;;;;;22.73;39.68;100692.88;10328156;28;20053;-71
2022/09/26 13:09:09;;;;;;;11.27;1.67;;;;;;;22.68;39.81;100693.59;10331613;28;20054;-71
2022/09/26 13:14:40;;;;;;;4.05;1.30;;;;;;;22.60;40.10;100685.84;10331748;28;20048;-71
2022/09/26 13:20:02;;;;;;;7.10;1.20;;;;;;;22.04;40.91;100612.38;10331581;28;20038;-71
2022/09/26 13:25:20;;;;;;;4.35;1.30;;;;;;;22.02;40.77;100613.69;10331719;28;20081;-71
2022/09/26 13:30:27;;;;;;;2.55;1.00;;;;;;;22.26;40.76;100666.75;10340251;28;20048;-71
2022/09/26 13:35:34;;;;;;;4.63;1.10;;;;;;;21.69;41.02;100608.84;10351384;28;20048;-72
2022/09/26 13:40:53;;;;;;;9.70;2.20;;;;;;;22.07;41.23;100681.41;10367745;28;20042;-73
2022/09/26 13:46:14;;;;;;;18.30;1.70;;;;;;;21.92;41.94;100684.59;10371398;28;20045;-70
2022/09/26 13:51:24;;;;;;;8.88;1.65;;;;;;;21.81;42.16;100670.03;10372246;28;20060;-71
2022/09/26 13:56:34;;;;;;;7.28;1.35;;;;;;;21.68;42.14;100662.13;10371922;28;20489;-71
2022/09/26 14:01:35;;;;;;;6.80;1.17;;;;;;;21.40;42.30;100649.28;10372491;28;20127;-70
2022/09/26 14:06:36;;;;;;;7.18;1.23;;;;;;;21.37;42.25;100655.13;10358632;28;20038;-70
2022/09/26 14:11:48;;;;;;;13.38;1.60;;;;;;;21.11;42.79;100650.91;10348859;28;20042;-70
2022/09/26 14:16:54;;;;;;;8.07;1.35;;;;;;;20.91;42.95;100656.59;10370841;28;20041;-71
2022/09/26 14:22:01;;;;;;;2.45;1.10;;;;;;;20.88;42.65;100674.09;10371560;28;20069;-71
2022/09/26 14:27:40;;;;;;;8.25;1.40;;;;;;;20.65;43.94;100653.19;10375802;28;20525;-71
2022/09/26 14:32:45;;;;;;;4.20;1.40;;;;;;;20.52;43.78;100672.25;10379389;28;20536;-70
2022/09/26 14:37:49;;;;;;;7.10;1.20;;;;;;;20.27;45.14;100670.41;10379668;28;20046;-71
2022/09/26 14:42:52;;;;;;;;;;;;;;;20.18;45.31;100669.06;10379081;28;20038;-71
2022/09/26 14:48:14;;;;;;;30.77;3.00;;;;;;;19.37;46.65;100614.19;10377708;28;20055;-70
2022/09/26 14:53:37;;;;;;;27.30;1.80;;;;;;;19.28;47.65;100630.84;10378630;28;20054;-71
2022/09/26 14:58:38;;;;;;;10.95;1.55;;;;;;;19.47;47.03;100683.75;10347466;28;20042;-70
2022/09/26 15:03:39;;;;;;;24.80;1.92;;;;;;;19.23;47.75;100681.84;10375385;28;20084;-71
2022/09/26 15:08:40;;;;;;;15.07;2.13;;;;;;;18.23;48.01;100542.38;10369210;28;20050;-72
2022/09/26 15:13:44;;;;;;;5.43;1.45;;;;;;;18.66;48.65;100631.38;10378212;28;20053;-69
2022/09/26 15:18:49;;;;;;;16.60;2.88;;;;;;;18.77;48.83;100669.47;10369944;28;20049;-69
2022/09/26 15:23:52;;;;;;;15.93;3.72;;;;;;;18.28;49.14;100617.88;10343160;28;20158;-70
2022/09/26 15:28:55;;;;;;;46.37;21.63;;;;;;;18.50;49.48;100669.53;10334733;28;20515;-69
2022/09/26 15:34:03;;;;;;;60.90;26.38;;;;;;;18.26;49.78;100665.66;10336002;28;20180;-70
2022/09/26 15:39:25;;;;;;;48.75;17.02;;;;;;;18.21;51.24;100666.28;10334679;28;20053;-71
2022/09/26 15:44:30;;;;;;;13.63;5.55;;;;;;;17.97;50.84;100664.25;10335551;28;20042;-68
2022/09/26 15:49:31;;;;;;;26.38;3.92;;;;;;;17.39;51.48;100599.59;10334915;28;20078;-70
2022/09/26 15:54:32;;;;;;;10.50;1.75;;;;;;;17.54;51.79;100651.25;10335783;28;20414;-70
2022/09/26 15:59:38;;;;;;;4.00;1.20;;;;;;;17.43;52.74;100651.84;10334508;28;20042;-71
2022/09/26 16:04:40;;;;;;;4.20;1.20;;;;;;;17.23;52.13;100633.88;10335013;28;20125;-70
2022/09/26 16:09:43;;;;;;;7.65;0.90;;;;;;;17.24;52.87;100646.25;10334972;28;20042;-70
2022/09/26 16:14:48;;;;;;;7.68;1.05;;;;;;;17.23;52.88;100667.91;10358187;28;20038;-70
2022/09/26 16:19:54;;;;;;;4.07;0.85;;;;;;;17.14;52.76;100663.78;10375047;28;20061;-70
2022/09/26 16:25:24;;;;;;;1.90;0.90;;;;;;;17.15;53.37;100668.94;10374635;28;20052;-70
2022/09/26 16:30:25;;;;;;;11.93;1.10;;;;;;;17.05;52.91;100666.66;10370975;28;20528;-69
2022/09/26 16:35:27;;;;;;;3.58;0.82;;;;;;;16.97;53.47;100669.53;10373737;28;20128;-70
2022/09/26 16:40:29;;;;;;;2.88;1.08;;;;;;;16.92;53.62;100671.16;10367349;28;20046;-67
2022/09/26 16:45:31;;;;;;;3.38;1.13;;;;;;;16.31;53.92;100581.56;10333419;28;20034;-69
2022/09/26 16:50:35;;;;;;;11.35;1.23;;;;;;;16.79;54.05;100670.09;10332893;28;20602;-68
2022/09/26 16:55:36;;;;;;;3.38;1.00;;;;;;;16.79;54.58;100682.69;10330648;28;20104;-70
2022/09/26 17:05:59;;;;;;;3.90;1.50;;;;;;;16.55;54.79;100665.22;10360693;28;20505;-71
2022/09/26 17:11:02;;;;;;;6.43;2.40;;;;;;;16.24;55.16;100618.22;10343265;28;20046;-70
2022/09/26 17:16:04;;;;;;;6.20;2.10;;;;;;;15.97;55.13;100585.94;10334207;28;20159;-68
2022/09/26 17:21:05;;;;;;;11.07;2.42;;;;;;;16.39;55.96;100655.63;10366321;28;20111;-70
2022/09/26 17:26:07;;;;;;;9.40;1.90;;;;;;;16.11;56.10;100623.53;10385432;28;20409;-69
2022/09/26 17:31:17;;;;;;;6.85;1.27;;;;;;;16.17;56.66;100639.63;10386931;28;20107;-69
2022/09/26 17:36:26;;;;;;;5.43;1.38;;;;;;;16.07;57.68;100616.91;10386178;28;20091;-69
2022/09/26 17:41:30;;;;;;;3.78;1.15;;;;;;;15.75;56.97;100568.28;10380440;28;20516;-70
2022/09/26 17:46:31;;;;;;;5.03;1.30;;;;;;;16.10;57.46;100646.81;10383467;28;20444;-70
2022/09/26 17:51:32;;;;;;;4.55;1.10;;;;;;;16.08;57.36;100646.19;10371791;28;20145;-68
2022/09/26 17:56:33;;;;;;;6.47;1.52;;;;;;;15.98;56.96;100629.63;10386209;28;20575;-68
2022/09/26 18:01:34;;;;;;;5.60;1.38;;;;;;;16.08;56.76;100630.09;10392657;28;20053;-69
2022/09/26 18:06:35;;;;;;;3.03;1.00;;;;;;;15.71;56.69;100577.72;10379850;28;20042;-68
2022/09/26 18:11:37;;;;;;;4.50;1.15;;;;;;;16.13;56.52;100648.28;10388639;28;20106;-69
2022/09/26 18:16:41;;;;;;;5.68;1.10;;;;;;;16.09;56.67;100647.00;10387621;28;20068;-72
2022/09/26 18:21:41;;;;;;;7.15;1.10;;;;;;;16.13;56.80;100669.72;10388690;28;20055;-70
2022/09/26 18:26:49;;;;;;;2.70;1.02;;;;;;;16.13;56.83;100656.31;10391777;28;20439;-70
2022/09/26 18:31:51;;;;;;;3.38;1.05;;;;;;;15.86;56.29;100593.69;10396682;28;20505;-69
2022/09/26 18:36:55;;;;;;;5.72;1.33;;;;;;;16.10;56.54;100635.28;10397156;28;20042;-70
2022/09/26 18:42:04;;;;;;;8.48;1.70;;;;;;;15.59;57.81;100544.47;10393699;28;20383;-69
2022/09/26 18:47:14;;;;;;;8.32;1.60;;;;;;;15.81;58.47;100564.81;10397852;28;20063;-70
2022/09/26 18:52:17;;;;;;;12.63;1.40;;;;;;;15.73;58.95;100559.59;10395426;28;20544;-69
2022/09/26 19:02:39;;;;;;;15.68;1.15;;;;;;;16.08;59.62;100630.09;10396034;28;20541;-70
2022/09/26 19:07:42;;;;;;;7.65;1.70;;;;;;;16.05;60.33;100621.63;10392503;28;20056;-69
2022/09/26 19:12:43;;;;;;;4.00;1.40;;;;;;;15.86;61.38;100609.78;10387865;28;20073;-70
2022/09/26 19:17:43;;;;;;;7.22;1.30;;;;;;;15.98;62.33;100635.81;10377504;28;20057;-69
2022/09/26 19:22:44;;;;;;;4.45;1.50;;;;;;;15.94;63.62;100639.91;10376848;28;20053;-68
2022/09/26 19:27:50;;;;;;;7.47;1.77;;;;;;;15.97;64.68;100665.47;10376417;28;20042;-69
2022/09/26 19:32:54;;;;;;;11.85;1.52;;;;;;;15.91;64.70;100659.06;10376683;28;20049;-69
2022/09/26 19:37:56;;;;;;;8.68;1.70;;;;;;;15.75;64.99;100638.75;10387150;28;20149;-69
2022/09/26 19:42:57;;;;;;;17.65;2.05;;;;;;;15.52;65.33;100609.50;10376822;28;20069;-69
2022/09/26 19:47:58;;;;;;;6.03;1.70;;;;;;;15.65;65.88;100651.63;10390713;28;20051;-69
2022/09/26 19:52:59;;;;;;;4.47;1.35;;;;;;;15.61;66.51;100658.38;10393988;28;20049;-68
2022/09/26 19:58:25;;;;;;;5.50;1.40;;;;;;;15.58;70.08;100649.88;10391804;28;20041;-69
2022/09/26 20:03:30;;;;;;;7.22;1.50;;;;;;;15.44;69.30;100660.50;10404238;28;20136;-68
2022/09/26 20:08:30;;;;;;;3.53;1.35;;;;;;;15.30;68.70;100645.31;10375638;28;20073;-69
2022/09/26 20:14:22;;;;;;;4.07;1.50;;;;;;;15.26;69.59;100636.03;10374783;28;20046;-68
2022/09/26 20:18:54;;;;;;;3.65;1.55;;;;;;;15.03;70.18;100614.81;10375221;28;20038;-68
2022/09/26 20:23:59;;;;;;;7.32;1.55;;;;;;;15.01;71.12;100619.50;10373935;28;20046;-68
2022/09/26 20:28:59;;;;;;;5.72;1.38;;;;;;;15.04;71.42;100627.16;10374138;28;20052;-68
2022/09/26 20:34:00;;;;;;;7.32;1.30;;;;;;;14.56;72.44;100543.94;10398910;28;20140;-69
2022/09/26 20:39:05;;;;;;;8.93;1.45;;;;;;;14.95;74.58;100599.69;10414713;28;20049;-69
2022/09/26 20:44:27;;;;;;;4.68;1.45;;;;;;;14.94;77.21;100583.84;10414761;28;20049;-68
2022/09/26 20:49:39;;;;;;;2.35;1.00;;;;;;;14.78;76.27;100552.84;10414293;28;20519;-68
2022/09/26 20:54:41;;;;;;;6.13;1.63;;;;;;;14.87;76.38;100578.44;10415062;28;20041;-69
2022/09/26 20:59:42;;;;;;;3.78;1.13;;;;;;;14.38;76.51;100494.38;10414304;28;20073;-68
2022/09/26 21:04:43;;;;;;;3.05;1.42;;;;;;;14.46;77.12;100508.66;10414874;28;20041;-69
2022/09/26 21:09:44;;;;;;;4.50;1.40;;;;;;;14.70;78.14;100553.78;10414071;28;20049;-68
2022/09/26 21:14:45;;;;;;;3.38;1.23;;;;;;;14.75;78.76;100566.59;10414482;28;20037;-68
2022/09/26 21:19:46;;;;;;;7.70;1.60;;;;;;;14.79;80.16;100578.56;10412486;28;20578;-68
2022/09/26 21:24:48;;;;;;;5.95;1.30;;;;;;;14.61;80.09;100557.59;10392290;28;20042;-68
2022/09/26 21:29:49;;;;;;;6.32;1.35;;;;;;;14.60;80.56;100553.28;10372055;28;20491;-68
2022/09/26 21:35:02;;;;;;;3.45;1.42;;;;;;;14.70;84.69;100574.34;10372527;28;20113;-69
2022/09/26 21:40:03;;;;;;;4.05;1.63;;;;;;;14.63;81.66;100581.44;10372019;28;20072;-68
2022/09/26 21:45:08;;;;;;;8.38;2.03;;;;;;;14.52;84.22;100577.44;10371741;28;20502;-68
2022/09/26 21:50:12;;;;;;;7.65;1.60;;;;;;;14.32;83.53;100555.78;10371918;28;20057;-68
2022/09/26 21:55:20;;;;;;;4.68;1.30;;;;;;;14.30;85.40;100553.31;10371699;28;20125;-70
2022/09/26 22:00:21;;;;;;;4.97;1.73;;;;;;;14.27;84.45;100558.16;10372107;28;20038;-68
2022/09/26 22:05:22;;;;;;;2.47;1.48;;;;;;;13.84;84.85;100472.59;10372800;28;20046;-69
2022/09/26 22:10:23;;;;;;;5.60;1.58;;;;;;;14.08;85.99;100514.19;10371886;28;20053;-68
2022/09/26 22:15:24;;;;;;;3.60;1.60;;;;;;;14.23;86.31;100530.19;10371239;28;20042;-68
2022/09/26 22:20:25;;;;;;;3.65;1.70;;;;;;;13.70;86.32;100445.72;10371080;28;20042;-69
2022/09/26 22:25:26;;;;;;;4.35;1.77;;;;;;;14.19;87.05;100544.94;10371942;28;20046;-68
2022/09/26 22:30:27;;;;;;;4.47;1.42;;;;;;;14.14;87.86;100537.47;10372063;28;20099;-68
2022/09/26 22:35:28;;;;;;;2.60;1.40;;;;;;;14.10;88.17;100537.03;10370765;28;20048;-68
2022/09/26 22:40:28;;;;;;;3.13;1.80;;;;;;;14.02;88.83;100534.44;10371213;28;20419;-68
2022/09/26 22:45:29;;;;;;;4.70;2.00;;;;;;;13.84;89.40;100488.59;10372536;28;20501;-68
2022/09/26 22:50:30;;;;;;;4.85;2.00;;;;;;;13.88;90.33;100490.72;10378672;28;20061;-68
2022/09/26 22:55:31;;;;;;;4.60;1.80;;;;;;;13.88;90.90;100488.06;10378340;28;20517;-68
2022/09/26 23:00:32;;;;;;;2.80;1.70;;;;;;;13.87;91.97;100477.53;10377347;28;20065;-68
2022/09/26 23:05:34;;;;;;;6.28;2.45;;;;;;;13.85;92.54;100468.88;10389171;28;20050;-68
2022/09/26 23:10:34;;;;;;;6.32;2.03;;;;;;;13.79;92.69;100464.28;10377622;28;20042;-68
2022/09/26 23:15:35;;;;;;;3.92;2.10;;;;;;;13.70;93.28;100439.56;10377929;28;20393;-68
2022/09/26 23:20:41;;;;;;;7.82;2.38;;;;;;;13.42;97.14;100399.34;10377302;28;20046;-68
2022/09/26 23:25:47;;;;;;;4.80;2.40;;;;;;;13.82;98.77;100463.91;10377750;28;20042;-68
2022/09/26 23:30:49;;;;;;;8.95;2.85;;;;;;;13.64;95.93;100425.13;10377040;28;20527;-68
2022/09/26 23:35:56;;;;;;;5.13;2.00;;;;;;;13.26;98.86;100368.38;10377299;28;20605;-68
2022/09/26 23:40:57;;;;;;;5.18;2.35;;;;;;;13.79;96.29;100451.78;10376203;28;20144;-68
2022/09/26 23:45:58;;;;;;;4.38;2.10;;;;;;;13.24;96.82;100363.16;10376947;28;20129;-69
2022/09/26 23:50:59;;;;;;;5.28;2.17;;;;;;;13.60;96.78;100426.47;10375400;28;20058;-68
2022/09/26 23:56:05;;;;;;;5.00;2.22;;;;;;;13.63;100.00;100451.97;10376177;28;20096;-68
